Terminal Aerodrome Forecast
Issued by NWS

Home | Current Version | Previous Version | Text Only | Print | Product List | Glossary Off
Versions: 1 2 3 4 5 6 7 8 9 10 11 12 13

735
FTUS45 KGGW 232320
TAFSDY
TAF
KSDY 232320Z 2400/2424 25016KT P6SM SCT100
     FM240300 26007KT P6SM BKN130
     FM241800 24008KT P6SM SCT070
      AMD LTD TO CLD VIS AND WIND=

USA.gov is the U.S. government's official web portal to all federal, state and local government web resources and services.